Terminal Aerodrome Forecast
Issued by NWS Charleston, WV

Home | Current Version | Previous Version | Text Only | Print | Product List | Glossary On
Versions: 1 2 3 4 5 6 7 8 9 10 11 12 13 14 15 16 17 18 19 20 21 22 23 24 25 26 27 28 29
000
FTUS41 KRLX 201700 RRA
TAFEKN
TAF
KEKN 201741Z 2018/2118 25006KT P6SM BKN150
     FM202300 00000KT P6SM SCT120
     FM210200 00000KT P6SM BKN100
     FM210600 00000KT P6SM BKN040
     FM211000 00000KT P6SM OVC025
     FM211400 26004KT P6SM OVC025=

USA.gov is the U.S. government's official web portal to all federal, state and local government web resources and services.